Impacts TAF Board INFO
FOR SITUATIONAL AWARENESS. NOT TO BE USED FOR FLIGHT PLANNING PURPOSES.
IDs:

KDCA - Washington/National, VA, US

Issued at 1144 UTC 22 Feb 2018
Updated at 1230 UTC 22 Feb 2018
Potential Impact None Slight Moderate High
Time<<23/01Z 23/02Z 23/03Z 23/04Z 23/05Z 23/06Z 23/07Z 23/08Z 23/09Z 23/10Z 23/11Z 23/12Z 23/13Z>>
Type PRVL PRVL PRVL PRVL PRVL PRVL PRVL PRVL PRVL PRVL PRVL PRVL PRVL
VIS 5 5 5 5 5 2 2 2 2 2 2 2 2
CIG 8 8 8 8 8 4 4 4 4 4 4 4 4
Cover OVC OVC OVC OVC OVC OVC OVC OVC OVC OVC OVC OVC OVC
FltCat IFR IFR IFR IFR IFR LIFR LIFR LIFR LIFR LIFR LIFR LIFR LIFR
WX -RA -DZ -RA -DZ -RA -DZ -RA -DZ -RA -DZ -RA -DZ BR -RA -DZ BR -RA -DZ BR -RA -DZ BR -RA -DZ BR -RA -DZ -RA -DZ -RA -DZ
WDir 30 30 30 30 30 40 40 40 40 40 80 80 80
WSpd 7 7 7 7 7 5 5 5 5 5 5 5 5
WGst -- -- -- -- -- -- -- -- -- -- -- -- --

Raw TAF
KDCA 221144Z 2212/2318 02008G16KT P6SM VCSH BKN020 OVC050
  FM221400 02007KT 5SM -RADZ BKN015 OVC025
  FM221700 03007KT 5SM -RADZ BKN008 OVC015
  FM230600 04005KT 2SM -RADZ BR BKN004 OVC008
  FM231100 08005KT 2SM -RADZ BKN004 OVC008
  FM231700 15005KT 5SM -RADZ BKN008 OVC015


METAR Board
Radar Display
Forecast Discussion

FOR SITUATIONAL AWARENESS. NOT TO BE USED FOR FLIGHT PLANNING PURPOSES.